Time;durP1;ratioP1;P1;durP2;ratioP2;P2;SDS_P1;SDS_P2;PMS_P1;PMS_P2;Temp;Humidity;BMP_temperature;BMP_pressure;BME280_temperature;BME280_humidity;BME280_pressure;Samples;Min_cycle;Max_cycle;Signal;HPM_P1;HPM_P2
2023/06/02 00:01:00;;;;;;;10.47;7.77;;;20.70;99.90;;;;;;5132289;27;20435;-78
2023/06/02 00:03:33;;;;;;;9.40;7.97;;;20.60;99.90;;;;;;5116636;28;20544;-78
2023/06/02 00:06:00;;;;;;;10.50;8.20;;;20.60;99.90;;;;;;5098270;28;20458;-78
2023/06/02 00:08:26;;;;;;;9.37;8.20;;;20.60;99.90;;;;;;5116675;28;20427;-77
2023/06/02 00:10:52;;;;;;;10.90;9.10;;;20.60;99.90;;;;;;5116339;28;20469;-78
2023/06/02 00:13:18;;;;;;;11.13;8.43;;;20.70;99.90;;;;;;5116225;28;20481;-81
2023/06/02 00:15:44;;;;;;;9.37;8.37;;;20.70;99.90;;;;;;5132123;27;20428;-78
2023/06/02 00:18:10;;;;;;;12.27;8.23;;;20.70;99.90;;;;;;5132126;27;20573;-78
2023/06/02 00:20:36;;;;;;;8.87;7.77;;;20.70;99.90;;;;;;5132238;27;21025;-81
2023/06/02 00:23:02;;;;;;;9.30;8.37;;;20.70;99.90;;;;;;5132178;27;20670;-81
2023/06/02 00:25:28;;;;;;;9.27;7.80;;;20.70;99.90;;;;;;5116253;28;20534;-81
2023/06/02 00:27:54;;;;;;;10.00;7.97;;;20.70;99.90;;;;;;5116123;28;20207;-77
2023/06/02 00:30:19;;;;;;;12.43;8.77;;;20.70;99.90;;;;;;5116135;28;20463;-81
2023/06/02 00:32:45;;;;;;;9.17;8.00;;;20.70;99.90;;;;;;5131871;27;20214;-78
2023/06/02 00:35:11;;;;;;;8.93;8.03;;;20.60;99.90;;;;;;5115955;28;20613;-82
2023/06/02 00:37:36;;;;;;;8.17;7.33;;;20.60;99.90;;;;;;5131928;27;20544;-82
2023/06/02 00:40:03;;;;;;;9.43;7.67;;;20.60;99.90;;;;;;5115883;28;20265;-81
2023/06/02 00:42:29;;;;;;;8.73;7.80;;;20.60;99.90;;;;;;5097908;28;20180;-82
2023/06/02 00:44:55;;;;;;;9.83;7.90;;;20.60;99.90;;;;;;5097611;28;20447;-82
2023/06/02 00:47:21;;;;;;;8.13;7.27;;;20.50;99.90;;;;;;5131700;27;20419;-78
2023/06/02 00:49:46;;;;;;;9.67;7.93;;;20.50;99.90;;;;;;5131734;27;20535;-81
2023/06/02 00:52:15;;;;;;;8.10;7.30;;;20.30;99.90;;;;;;5131484;27;20214;-80
2023/06/02 00:54:41;;;;;;;8.87;8.00;;;20.40;99.90;;;;;;5116088;28;20191;-78
2023/06/02 00:57:07;;;;;;;9.80;8.60;;;20.30;99.90;;;;;;5115644;28;20416;-78
2023/06/02 00:59:33;;;;;;;9.87;8.87;;;20.20;99.90;;;;;;5115871;28;20182;-78
2023/06/02 01:01:59;;;;;;;9.93;8.13;;;20.20;99.90;;;;;;5115551;28;20469;-80
2023/06/02 01:04:25;;;;;;;9.23;7.87;;;20.20;99.90;;;;;;5131480;27;20218;-78
2023/06/02 01:06:52;;;;;;;9.23;8.17;;;20.10;99.90;;;;;;5115346;28;20469;-77
2023/06/02 01:09:19;;;;;;;9.60;8.60;;;20.10;99.90;;;;;;5115748;28;20412;-81
2023/06/02 01:11:48;;;;;;;9.27;8.27;;;20.10;99.90;;;;;;5130070;27;20481;-80
2023/06/02 01:14:14;;;;;;;10.53;9.00;;;20.10;99.90;;;;;;5131288;27;20427;-78
2023/06/02 01:16:40;;;;;;;10.03;8.33;;;20.10;99.90;;;;;;5115033;28;20440;-81
2023/06/02 01:19:13;;;;;;;8.80;7.90;;;20.10;99.90;;;;;;5115477;28;20441;-82
2023/06/02 01:21:47;;;;;;;10.13;8.60;;;20.10;99.90;;;;;;5115248;28;20518;-82
2023/06/02 01:24:14;;;;;;;10.27;8.60;;;20.10;99.90;;;;;;5097116;28;20815;-78
2023/06/02 01:26:40;;;;;;;11.40;8.73;;;20.10;99.90;;;;;;5115073;28;20438;-81
2023/06/02 01:29:07;;;;;;;8.77;7.90;;;20.00;99.90;;;;;;5115337;28;20488;-77
2023/06/02 01:31:46;;;;;;;10.40;8.57;;;20.00;99.90;;;;;;5114855;28;20429;-77
2023/06/02 01:34:31;;;;;;;8.10;7.33;;;20.00;99.90;;;;;;5115307;28;20911;-81
2023/06/02 01:36:58;;;;;;;11.30;7.77;;;20.00;99.90;;;;;;5130734;27;20891;-81
2023/06/02 01:39:27;;;;;;;9.73;8.70;;;20.00;99.90;;;;;;5130885;27;20423;-81
2023/06/02 01:41:54;;;;;;;15.10;8.33;;;19.90;99.90;;;;;;5114745;28;20932;-78
2023/06/02 01:44:22;;;;;;;10.67;7.90;;;19.90;99.90;;;;;;5114598;28;20464;-77
2023/06/02 01:46:48;;;;;;;9.33;7.70;;;19.90;99.90;;;;;;5114564;28;20438;-77
2023/06/02 01:49:17;;;;;;;9.50;8.50;;;19.90;99.90;;;;;;5114960;28;20423;-81
2023/06/02 01:51:44;;;;;;;12.00;8.60;;;19.80;99.90;;;;;;5096269;28;20431;-82
2023/06/02 01:54:10;;;;;;;9.97;8.67;;;19.80;99.90;;;;;;5114476;28;20428;-81
2023/06/02 01:56:36;;;;;;;9.50;8.60;;;19.70;99.90;;;;;;5114474;28;20467;-78
2023/06/02 01:59:02;;;;;;;13.50;8.60;;;19.70;99.90;;;;;;5096287;28;20475;-78
2023/06/02 02:01:27;;;;;;;12.10;9.07;;;19.70;99.90;;;;;;5114424;28;20458;-81
2023/06/02 02:03:56;;;;;;;9.90;8.90;;;19.70;99.90;;;;;;5114617;28;20505;-78
2023/06/02 02:06:29;;;;;;;10.50;8.80;;;19.70;99.90;;;;;;5114300;28;20190;-82
2023/06/02 02:08:56;;;;;;;10.37;8.63;;;19.70;99.90;;;;;;5114649;28;20774;-78
2023/06/02 02:11:22;;;;;;;9.57;8.63;;;19.70;99.90;;;;;;5114307;28;20439;-82
2023/06/02 02:13:49;;;;;;;9.90;8.60;;;19.60;99.90;;;;;;5114444;28;21078;-81
2023/06/02 02:16:15;;;;;;;10.70;9.13;;;19.60;99.90;;;;;;5114257;28;20447;-81
2023/06/02 02:18:41;;;;;;;10.67;8.57;;;19.60;99.90;;;;;;5114470;28;20963;-81
2023/06/02 02:21:07;;;;;;;10.57;9.50;;;19.60;99.90;;;;;;5114162;28;20196;-78
2023/06/02 02:23:32;;;;;;;9.30;8.20;;;19.50;99.90;;;;;;5113944;28;20922;-81
2023/06/02 02:25:58;;;;;;;13.90;9.87;;;19.50;99.90;;;;;;5114176;28;20188;-81
2023/06/02 02:28:24;;;;;;;12.03;8.77;;;19.60;99.90;;;;;;5130068;28;20182;-78
2023/06/02 02:30:50;;;;;;;9.80;8.90;;;19.60;99.90;;;;;;5129920;28;20201;-81
2023/06/02 02:33:16;;;;;;;11.40;9.73;;;19.60;99.90;;;;;;5114119;28;20226;-77
2023/06/02 02:35:42;;;;;;;10.80;9.40;;;19.60;99.90;;;;;;5129797;28;20233;-77
2023/06/02 02:38:08;;;;;;;9.67;8.67;;;19.60;99.90;;;;;;5113985;28;20831;-82
2023/06/02 02:40:33;;;;;;;9.30;8.40;;;19.50;99.90;;;;;;5113992;28;20720;-82
2023/06/02 02:42:59;;;;;;;10.30;9.23;;;19.50;99.90;;;;;;5129784;28;20277;-81
2023/06/02 02:45:25;;;;;;;10.40;9.23;;;19.50;99.90;;;;;;5129753;28;20703;-78
2023/06/02 02:47:51;;;;;;;10.43;9.10;;;19.40;99.90;;;;;;5095618;28;20178;-82
2023/06/02 02:50:16;;;;;;;10.90;8.43;;;19.40;99.90;;;;;;5113896;28;20662;-77
2023/06/02 02:52:42;;;;;;;12.47;9.20;;;19.40;99.90;;;;;;5129656;28;20454;-79
2023/06/02 02:55:08;;;;;;;11.17;9.97;;;19.40;99.90;;;;;;5113802;28;20182;-78
2023/06/02 02:57:33;;;;;;;10.60;9.13;;;19.30;99.90;;;;;;5113936;28;20258;-78
2023/06/02 02:59:59;;;;;;;10.50;9.00;;;19.30;99.90;;;;;;5114267;28;20658;-79
2023/06/02 03:02:25;;;;;;;11.07;9.10;;;19.30;99.90;;;;;;5113973;28;20177;-78
2023/06/02 03:04:51;;;;;;;10.50;9.40;;;19.40;99.90;;;;;;5114235;28;20442;-81
2023/06/02 03:07:18;;;;;;;10.00;8.97;;;19.40;99.90;;;;;;5113977;28;20538;-81
2023/06/02 03:09:43;;;;;;;15.00;9.33;;;19.50;99.90;;;;;;5114138;28;20472;-81
2023/06/02 03:12:09;;;;;;;9.80;8.80;;;19.60;99.90;;;;;;5113718;28;20450;-80
2023/06/02 03:14:35;;;;;;;10.63;9.50;;;19.60;99.90;;;;;;5113600;28;20215;-81
2023/06/02 03:17:01;;;;;;;10.67;9.60;;;19.70;99.90;;;;;;5113554;28;20214;-81
2023/06/02 03:19:27;;;;;;;10.67;9.63;;;19.70;99.90;;;;;;5114160;28;20481;-81
2023/06/02 03:21:55;;;;;;;11.77;9.70;;;19.80;99.90;;;;;;5113596;28;20231;-80
2023/06/02 03:24:22;;;;;;;11.70;10.10;;;19.80;99.90;;;;;;5129638;28;20435;-78
2023/06/02 03:26:49;;;;;;;11.83;9.87;;;19.80;99.90;;;;;;5113519;28;20438;-77
2023/06/02 03:29:15;;;;;;;11.90;10.37;;;19.80;99.90;;;;;;5113946;28;20474;-78
2023/06/02 03:31:41;;;;;;;10.93;9.00;;;19.90;99.90;;;;;;5113485;28;20439;-81
2023/06/02 03:34:07;;;;;;;14.00;11.20;;;19.90;99.90;;;;;;5130319;27;20191;-81
2023/06/02 03:36:35;;;;;;;11.47;10.13;;;20.00;99.90;;;;;;5099022;28;20989;-77
2023/06/02 03:39:04;;;;;;;13.37;10.57;;;20.00;99.90;;;;;;5117465;28;20412;-78
2023/06/02 03:41:30;;;;;;;12.67;10.40;;;20.00;99.90;;;;;;5117113;28;20796;-78
2023/06/02 03:43:56;;;;;;;10.30;9.30;;;20.10;99.90;;;;;;5098627;28;20502;-77
2023/06/02 03:46:21;;;;;;;11.63;10.30;;;20.10;99.90;;;;;;5117017;28;20435;-78
2023/06/02 03:48:47;;;;;;;11.73;10.17;;;20.00;99.90;;;;;;5117323;28;20178;-77
2023/06/02 03:51:13;;;;;;;12.53;10.90;;;20.00;99.90;;;;;;5098681;28;20743;-82
2023/06/02 03:53:38;;;;;;;12.90;9.57;;;19.90;99.90;;;;;;5117006;28;20569;-82
2023/06/02 03:56:05;;;;;;;12.97;11.67;;;19.90;99.90;;;;;;5116776;28;20195;-82
2023/06/02 03:58:31;;;;;;;11.97;10.67;;;19.80;99.90;;;;;;5098417;28;20541;-78
2023/06/02 04:00:58;;;;;;;13.10;10.20;;;19.80;99.90;;;;;;5098372;28;20468;-77
2023/06/02 04:03:24;;;;;;;11.37;9.50;;;19.90;99.90;;;;;;5116931;28;20623;-77
2023/06/02 04:05:50;;;;;;;12.57;11.37;;;19.90;99.90;;;;;;5098354;28;20447;-82
2023/06/02 04:08:16;;;;;;;18.43;15.23;;;19.90;99.90;;;;;;5098336;28;20180;-83
2023/06/02 04:10:43;;;;;;;25.60;20.13;;;19.90;99.90;;;;;;5116564;28;20222;-82
2023/06/02 04:13:09;;;;;;;24.10;21.30;;;19.90;99.90;;;;;;5098168;28;20478;-82
2023/06/02 04:15:35;;;;;;;26.87;23.97;;;19.90;99.90;;;;;;5116329;28;20452;-77
2023/06/02 04:18:00;;;;;;;23.20;20.50;;;20.00;99.90;;;;;;5097208;28;20487;-77
2023/06/02 04:20:26;;;;;;;18.50;16.50;;;20.10;99.90;;;;;;5116191;28;20219;-82
2023/06/02 04:22:51;;;;;;;19.60;14.10;;;20.10;99.90;;;;;;5130130;27;20240;-83
2023/06/02 04:25:17;;;;;;;15.07;13.47;;;20.10;99.90;;;;;;5113924;28;20191;-77
2023/06/02 04:27:43;;;;;;;15.17;13.57;;;20.10;99.90;;;;;;5097065;28;20586;-82
2023/06/02 04:30:09;;;;;;;16.20;14.20;;;20.20;99.90;;;;;;5114896;27;20207;-76
2023/06/02 04:32:35;;;;;;;15.63;13.90;;;20.20;99.90;;;;;;5115516;28;20208;-79
2023/06/02 04:35:02;;;;;;;17.80;15.53;;;20.30;99.90;;;;;;5116069;28;20448;-78
2023/06/02 04:37:28;;;;;;;19.30;14.83;;;20.30;99.90;;;;;;5115429;28;20815;-79
2023/06/02 04:39:55;;;;;;;20.13;16.27;;;20.30;99.90;;;;;;5116113;28;20546;-79
2023/06/02 04:42:20;;;;;;;19.33;15.40;;;20.40;99.90;;;;;;5115784;28;20419;-77
2023/06/02 04:44:47;;;;;;;19.23;16.80;;;20.50;99.90;;;;;;5115770;28;20777;-81
2023/06/02 04:47:12;;;;;;;21.33;18.33;;;20.50;99.90;;;;;;5115223;28;20552;-77
2023/06/02 04:49:38;;;;;;;21.10;18.77;;;20.50;99.90;;;;;;5115759;28;20428;-83
2023/06/02 04:52:08;;;;;;;22.50;18.60;;;20.40;99.90;;;;;;5112464;27;20204;-76
2023/06/02 04:54:36;;;;;;;23.07;18.40;;;20.40;99.90;;;;;;5115719;27;20440;-84
2023/06/02 04:57:06;;;;;;;22.67;18.80;;;20.40;99.90;;;;;;5115592;28;20407;-77
2023/06/02 04:59:35;;;;;;;21.20;18.00;;;20.40;99.90;;;;;;5114599;28;20446;-76
2023/06/02 05:02:01;;;;;;;20.00;17.60;;;20.40;99.90;;;;;;5098345;28;20440;-82
2023/06/02 05:04:26;;;;;;;21.07;18.27;;;20.40;99.90;;;;;;5081246;28;20448;-75
2023/06/02 05:06:53;;;;;;;18.93;16.90;;;20.50;99.90;;;;;;5113863;28;20187;-81
2023/06/02 05:09:19;;;;;;;19.33;17.10;;;20.50;99.90;;;;;;5095658;28;20183;-75
2023/06/02 05:11:44;;;;;;;24.60;18.33;;;20.60;99.90;;;;;;5092291;28;20617;-75
2023/06/02 05:14:10;;;;;;;21.77;17.87;;;20.70;99.90;;;;;;5112440;28;20534;-75
2023/06/02 05:16:36;;;;;;;22.03;16.90;;;20.70;99.90;;;;;;5111362;28;20192;-75
2023/06/02 05:19:05;;;;;;;20.10;16.50;;;20.80;99.90;;;;;;5089838;28;20269;-75
2023/06/02 05:21:31;;;;;;;21.60;16.27;;;20.80;99.90;;;;;;5092754;28;20465;-82
2023/06/02 05:23:58;;;;;;;19.40;16.50;;;20.80;99.90;;;;;;5111005;28;20526;-75
2023/06/02 05:26:24;;;;;;;16.30;14.60;;;20.90;99.90;;;;;;5085111;28;20205;-75
2023/06/02 05:28:50;;;;;;;22.20;16.57;;;20.90;99.90;;;;;;5085091;28;20455;-82
2023/06/02 05:31:17;;;;;;;18.73;16.40;;;21.00;99.90;;;;;;5085004;28;20965;-76
2023/06/02 05:33:43;;;;;;;15.90;13.13;;;21.00;99.90;;;;;;5090574;28;20484;-76
2023/06/02 05:36:08;;;;;;;17.97;14.23;;;21.10;99.90;;;;;;5085259;28;20949;-84
2023/06/02 05:38:34;;;;;;;18.93;14.50;;;21.10;99.90;;;;;;5090953;28;20527;-76
2023/06/02 05:41:00;;;;;;;16.10;14.27;;;21.20;99.90;;;;;;5092165;28;20208;-76
2023/06/02 05:43:26;;;;;;;15.97;13.90;;;21.20;99.90;;;;;;5093011;28;20425;-82
2023/06/02 05:45:52;;;;;;;15.50;13.10;;;21.30;99.90;;;;;;5089341;28;20472;-76
2023/06/02 05:48:17;;;;;;;15.73;13.30;;;21.30;99.90;;;;;;5087403;28;20245;-80
2023/06/02 05:50:43;;;;;;;16.33;12.10;;;21.30;99.90;;;;;;5089859;28;20854;-76
2023/06/02 05:53:09;;;;;;;15.57;11.53;;;21.30;99.90;;;;;;5088346;28;20219;-76
2023/06/02 05:55:35;;;;;;;14.47;11.13;;;21.40;99.90;;;;;;5089095;28;20196;-82
2023/06/02 05:58:00;;;;;;;13.13;11.17;;;21.40;99.90;;;;;;5091935;28;20259;-76
2023/06/02 06:00:26;;;;;;;13.83;12.30;;;21.50;99.90;;;;;;5091006;28;20987;-76
2023/06/02 06:02:52;;;;;;;14.23;12.20;;;21.50;99.90;;;;;;5090818;28;20547;-81
2023/06/02 06:05:18;;;;;;;14.47;11.60;;;21.50;99.90;;;;;;5092462;28;20228;-82
2023/06/02 06:07:44;;;;;;;12.57;11.27;;;21.50;99.90;;;;;;5089170;28;20425;-76
2023/06/02 06:10:09;;;;;;;15.23;11.53;;;21.60;99.90;;;;;;5090818;28;20287;-81
2023/06/02 06:12:35;;;;;;;12.67;11.37;;;21.60;99.90;;;;;;5088925;28;20204;-77
2023/06/02 06:15:01;;;;;;;15.57;13.17;;;21.60;99.90;;;;;;5089343;28;20290;-76
2023/06/02 06:17:27;;;;;;;17.43;12.37;;;21.60;99.90;;;;;;5086717;28;20339;-76
2023/06/02 06:19:52;;;;;;;15.67;14.10;;;21.70;99.90;;;;;;5086313;28;20205;-77
2023/06/02 06:22:18;;;;;;;17.03;11.37;;;21.70;99.90;;;;;;5084722;28;20321;-82
2023/06/02 06:24:43;;;;;;;14.80;12.37;;;21.90;99.90;;;;;;5089892;28;20678;-83
2023/06/02 06:27:09;;;;;;;17.03;11.43;;;22.00;99.90;;;;;;5086827;28;20183;-77
2023/06/02 06:29:35;;;;;;;15.90;11.20;;;22.10;99.90;;;;;;5089219;28;20184;-79
2023/06/02 06:32:01;;;;;;;17.47;11.80;;;22.10;99.90;;;;;;5089547;28;20175;-78
2023/06/02 06:34:27;;;;;;;13.00;11.67;;;22.10;99.90;;;;;;5087761;28;20181;-84
2023/06/02 06:36:53;;;;;;;16.40;11.47;;;22.10;99.90;;;;;;5090201;28;20193;-78
2023/06/02 06:39:18;;;;;;;13.40;11.40;;;22.20;99.90;;;;;;5089222;28;20438;-83
2023/06/02 06:41:44;;;;;;;13.93;12.30;;;22.30;99.90;;;;;;5090974;28;20438;-80
2023/06/02 06:44:10;;;;;;;14.30;11.40;;;22.40;99.90;;;;;;5092887;28;20189;-84
2023/06/02 06:46:36;;;;;;;12.33;11.10;;;22.50;99.90;;;;;;5089547;28;20665;-84
2023/06/02 06:49:02;;;;;;;16.03;10.30;;;22.50;99.90;;;;;;5090588;28;20272;-83
2023/06/02 06:51:27;;;;;;;12.27;10.97;;;22.60;99.90;;;;;;5091068;28;20703;-83
2023/06/02 06:53:53;;;;;;;13.70;10.87;;;22.70;99.90;;;;;;5090206;28;20251;-78
2023/06/02 06:56:20;;;;;;;15.97;12.90;;;22.80;99.90;;;;;;5085857;28;20226;-83
2023/06/02 06:58:45;;;;;;;12.23;10.17;;;22.90;99.90;;;;;;5086745;28;20173;-83
2023/06/02 07:01:12;;;;;;;12.93;11.63;;;23.00;99.90;;;;;;5088343;28;20784;-84
2023/06/02 07:03:38;;;;;;;14.07;9.90;;;23.10;99.90;;;;;;5087403;28;20185;-85
2023/06/02 07:06:04;;;;;;;11.00;9.80;;;23.20;99.90;;;;;;5087504;28;20449;-84
2023/06/02 07:08:30;;;;;;;13.20;11.57;;;23.30;99.90;;;;;;5088217;28;20189;-78
2023/06/02 07:10:56;;;;;;;11.67;10.47;;;23.30;99.90;;;;;;5090095;28;20850;-83
2023/06/02 07:13:23;;;;;;;12.37;11.17;;;23.50;99.90;;;;;;5093207;28;20476;-83
2023/06/02 07:15:49;;;;;;;10.60;9.50;;;23.50;99.90;;;;;;5088952;28;20442;-78
2023/06/02 07:18:15;;;;;;;12.43;10.30;;;23.60;99.90;;;;;;5121762;27;20820;-83
2023/06/02 07:20:40;;;;;;;15.50;11.17;;;23.70;99.90;;;;;;5088969;28;20198;-78
2023/06/02 07:23:06;;;;;;;11.67;10.47;;;23.80;99.90;;;;;;5086928;28;20210;-78
2023/06/02 07:25:31;;;;;;;11.40;9.80;;;23.90;99.90;;;;;;5071701;28;20298;-78
2023/06/02 07:27:57;;;;;;;11.00;9.90;;;24.00;99.90;;;;;;5084749;28;20271;-81
2023/06/02 07:30:23;;;;;;;11.47;10.07;;;24.10;99.90;;;;;;5091919;28;20227;-83
2023/06/02 07:32:48;;;;;;;13.03;10.03;;;24.20;99.90;;;;;;5081802;28;20658;-78
2023/06/02 07:35:15;;;;;;;12.40;9.20;;;24.30;99.90;;;;;;5092726;28;20679;-79
2023/06/02 07:37:41;;;;;;;9.87;8.63;;;24.40;99.90;;;;;;5092277;28;20196;-83
2023/06/02 07:40:07;;;;;;;9.80;8.80;;;24.40;99.90;;;;;;5092599;28;20985;-84
2023/06/02 07:42:33;;;;;;;11.87;10.67;;;24.60;99.90;;;;;;5090158;28;20665;-83
2023/06/02 07:44:59;;;;;;;10.00;8.87;;;24.70;99.90;;;;;;5093427;28;20459;-78
2023/06/02 07:47:25;;;;;;;8.93;8.00;;;24.70;99.90;;;;;;5107151;28;20374;-77
2023/06/02 07:49:50;;;;;;;11.00;7.53;;;24.80;99.90;;;;;;5082296;28;20211;-82
2023/06/02 07:52:16;;;;;;;8.20;7.40;;;24.80;99.90;;;;;;5086095;28;20714;-82
2023/06/02 07:54:42;;;;;;;9.20;8.10;;;24.90;99.90;;;;;;5092119;28;20188;-84
2023/06/02 07:57:07;;;;;;;8.57;7.17;;;25.00;99.90;;;;;;5093217;28;20273;-83
2023/06/02 07:59:33;;;;;;;12.97;10.13;;;25.00;99.90;;;;;;5091177;28;20183;-78
2023/06/02 08:01:59;;;;;;;7.60;6.80;;;25.00;99.90;;;;;;5092895;28;20684;-83
2023/06/02 08:04:25;;;;;;;12.80;7.27;;;25.00;99.90;;;;;;5090495;28;20185;-78
2023/06/02 08:06:57;;;;;;;11.33;8.40;;;25.00;99.90;;;;;;5090214;28;20295;-78
2023/06/02 08:09:24;;;;;;;9.70;7.40;;;25.10;99.90;;;;;;5094432;28;20847;-83
2023/06/02 08:11:51;;;;;;;9.20;8.30;;;25.20;99.90;;;;;;5092304;28;20783;-83
2023/06/02 08:14:17;;;;;;;8.77;7.90;;;25.30;99.90;;;;;;5089288;28;20869;-84
2023/06/02 08:16:43;;;;;;;10.27;9.17;;;25.40;99.90;;;;;;5085079;28;20460;-78
2023/06/02 08:19:10;;;;;;;10.27;9.07;;;25.50;99.90;;;;;;5109396;27;20438;-78
2023/06/02 08:21:39;;;;;;;10.80;9.10;;;25.60;99.90;;;;;;5098256;28;20563;-83
2023/06/02 08:24:05;;;;;;;8.97;8.03;;;25.70;99.90;;;;;;5095670;28;20448;-83
2023/06/02 08:26:32;;;;;;;8.73;7.93;;;25.80;99.90;;;;;;5092021;28;20432;-83
2023/06/02 08:28:58;;;;;;;8.77;7.83;;;25.90;99.90;;;;;;5113491;27;20184;-81
2023/06/02 08:31:24;;;;;;;10.47;9.47;;;26.00;99.90;;;;;;5110674;28;20446;-79
2023/06/02 08:33:52;;;;;;;16.67;9.70;;;26.10;99.90;;;;;;5107905;28;20942;-83
2023/06/02 08:36:21;;;;;;;13.10;8.70;;;26.10;99.90;;;;;;5108896;27;20198;-83
2023/06/02 08:38:51;;;;;;;8.97;7.93;;;26.10;99.90;;;;;;5107613;28;20423;-83
2023/06/02 08:41:17;;;;;;;8.43;7.60;;;26.20;99.90;;;;;;5090547;28;20436;-78
2023/06/02 08:43:44;;;;;;;8.40;7.60;;;26.30;99.90;;;;;;5091794;28;20432;-78
2023/06/02 08:46:14;;;;;;;7.60;6.93;;;26.30;99.90;;;;;;5092293;28;20542;-84
2023/06/02 08:48:55;;;;;;;8.27;7.47;;;26.50;99.90;;;;;;5125577;27;20819;-79
2023/06/02 08:51:22;;;;;;;8.57;7.77;;;26.60;99.90;;;;;;5109545;28;20447;-83
2023/06/02 08:53:48;;;;;;;10.17;7.90;;;26.70;99.90;;;;;;5110574;28;20975;-85
2023/06/02 08:56:15;;;;;;;10.23;9.30;;;26.70;99.90;;;;;;5093014;28;20880;-84
2023/06/02 08:58:45;;;;;;;10.20;6.63;;;26.80;99.90;;;;;;5113406;27;20464;-83
2023/06/02 09:01:11;;;;;;;8.03;7.20;;;26.90;99.90;;;;;;5110377;28;20469;-83
2023/06/02 09:03:37;;;;;;;7.67;6.97;;;27.00;99.90;;;;;;5090053;28;21010;-84
2023/06/02 09:06:23;;;;;;;8.30;7.30;;;27.00;99.90;;;;;;5108711;27;20199;-78
2023/06/02 09:08:55;;;;;;;7.93;7.00;;;27.00;99.90;;;;;;5091282;28;20497;-78
2023/06/02 09:11:21;;;;;;;9.57;7.50;;;27.00;99.90;;;;;;5110384;28;20527;-78
2023/06/02 09:13:46;;;;;;;8.67;7.13;;;27.10;99.90;;;;;;5086643;28;20663;-84
2023/06/02 09:16:12;;;;;;;7.60;6.60;;;27.30;99.90;;;;;;5109203;28;20207;-78
2023/06/02 09:18:38;;;;;;;8.97;6.47;;;27.40;99.90;;;;;;5090717;28;20235;-83
2023/06/02 09:21:03;;;;;;;6.90;6.30;;;27.20;99.90;;;;;;5100349;27;20206;-84
2023/06/02 09:23:44;;;;;;;9.87;7.20;;;27.40;99.90;;;;;;5116477;27;20265;-83
2023/06/02 09:26:21;;;;;;;10.23;6.73;;;27.60;99.90;;;;;;5104597;27;20224;-83
2023/06/02 09:29:10;;;;;;;7.73;6.53;;;27.70;99.90;;;;;;5109626;27;20555;-84
2023/06/02 09:31:52;;;;;;;6.83;6.20;;;27.80;99.90;;;;;;5084541;28;20472;-78
2023/06/02 09:34:22;;;;;;;9.63;5.87;;;27.90;99.90;;;;;;5096256;28;20445;-83
2023/06/02 09:36:53;;;;;;;8.20;6.27;;;27.90;99.90;;;;;;5104127;28;20566;-78
2023/06/02 09:39:38;;;;;;;9.10;6.73;;;27.90;99.90;;;;;;5089282;28;20531;-78
2023/06/02 09:42:06;;;;;;;10.23;6.20;;;28.00;99.90;;;;;;5104852;27;20451;-79
2023/06/02 09:44:32;;;;;;;6.30;5.70;;;28.00;99.90;;;;;;5086352;28;20444;-84
2023/06/02 09:46:59;;;;;;;6.20;5.70;;;28.00;99.90;;;;;;5110444;28;20433;-79
2023/06/02 09:49:25;;;;;;;6.27;5.67;;;28.00;99.90;;;;;;5097717;27;21239;-84
2023/06/02 09:51:51;;;;;;;11.50;6.00;;;28.10;99.90;;;;;;5107657;28;20474;-80
2023/06/02 09:54:17;;;;;;;8.30;5.63;;;27.80;99.90;;;;;;5089247;28;20482;-78
2023/06/02 09:56:43;;;;;;;5.67;4.97;;;27.80;99.90;;;;;;5106501;28;20206;-84
2023/06/02 09:59:09;;;;;;;9.13;5.00;;;27.90;99.90;;;;;;5110184;28;20434;-79
2023/06/02 10:01:36;;;;;;;6.17;5.60;;;27.90;99.90;;;;;;5111889;27;20457;-78
2023/06/02 10:04:04;;;;;;;5.90;5.40;;;27.90;99.90;;;;;;5091372;28;20449;-79
2023/06/02 10:06:51;;;;;;;10.07;5.93;;;27.90;99.90;;;;;;5108450;28;20448;-84
2023/06/02 10:09:34;;;;;;;6.20;5.20;;;28.00;99.90;;;;;;5111235;27;20441;-85
2023/06/02 10:12:12;;;;;;;5.93;5.33;;;27.60;99.90;;;;;;5091931;27;20471;-79
2023/06/02 10:14:40;;;;;;;5.80;5.30;;;27.60;99.90;;;;;;5108116;27;20846;-85
2023/06/02 10:17:32;;;;;;;6.73;5.30;;;27.90;99.90;;;;;;5111701;27;20469;-79
2023/06/02 10:20:16;;;;;;;8.93;5.20;;;28.00;99.90;;;;;;5110272;27;20464;-84
2023/06/02 10:22:50;;;;;;;7.07;5.70;;;28.10;99.90;;;;;;5090293;28;20450;-84
2023/06/02 10:25:40;;;;;;;6.07;5.47;;;28.20;99.80;;;;;;5104147;28;20461;-78
2023/06/02 10:28:08;;;;;;;5.57;5.03;;;28.20;99.70;;;;;;5107634;28;20435;-79
2023/06/02 10:30:35;;;;;;;5.97;5.30;;;28.10;99.90;;;;;;5095137;28;20454;-78
2023/06/02 10:33:01;;;;;;;5.50;5.00;;;28.10;99.90;;;;;;5095266;28;20968;-78
2023/06/02 10:35:58;;;;;;;5.40;4.90;;;28.10;99.90;;;;;;5098845;28;20457;-83
2023/06/02 10:38:25;;;;;;;6.83;5.50;;;28.00;99.90;;;;;;5105727;28;20264;-83
2023/06/02 10:40:54;;;;;;;6.53;5.20;;;28.00;99.90;;;;;;5108774;28;20454;-83
2023/06/02 10:43:21;;;;;;;6.90;5.67;;;28.00;99.60;;;;;;5093211;28;20458;-83
2023/06/02 10:45:47;;;;;;;6.03;5.03;;;28.10;99.40;;;;;;5092598;28;20463;-83
2023/06/02 10:48:38;;;;;;;7.80;5.27;;;28.00;99.70;;;;;;5117039;27;20446;-79
2023/06/02 10:51:08;;;;;;;7.30;5.47;;;28.10;98.80;;;;;;5109178;28;20197;-77
2023/06/02 10:53:54;;;;;;;6.17;5.57;;;28.00;99.00;;;;;;5091673;28;20485;-78
2023/06/02 10:56:35;;;;;;;6.90;5.10;;;28.00;98.90;;;;;;5095144;27;20499;-78
2023/06/02 10:59:00;;;;;;;5.77;5.10;;;28.00;99.00;;;;;;5093959;28;20445;-83
2023/06/02 11:01:46;;;;;;;5.60;4.97;;;28.00;97.80;;;;;;5109269;27;20959;-85
2023/06/02 11:04:32;;;;;;;8.67;5.70;;;28.00;97.60;;;;;;5089628;28;20193;-83
2023/06/02 11:07:23;;;;;;;5.83;5.00;;;28.00;98.00;;;;;;5107204;27;20437;-76
2023/06/02 11:09:55;;;;;;;5.53;5.13;;;28.00;98.50;;;;;;5088959;28;20529;-81
2023/06/02 11:12:50;;;;;;;5.67;4.60;;;28.00;98.90;;;;;;5112913;27;20474;-77
2023/06/02 11:15:17;;;;;;;5.30;4.80;;;27.80;98.90;;;;;;5121190;27;20716;-81
2023/06/02 11:17:44;;;;;;;5.47;4.83;;;27.70;99.80;;;;;;5090940;27;20897;-77
2023/06/02 11:20:10;;;;;;;5.83;5.33;;;27.80;99.30;;;;;;5106040;27;21159;-81
2023/06/02 11:22:36;;;;;;;5.97;5.37;;;27.80;99.50;;;;;;5090097;28;21071;-81
2023/06/02 11:25:03;;;;;;;5.93;5.27;;;27.90;99.90;;;;;;5110587;28;20920;-76
2023/06/02 11:27:55;;;;;;;6.73;5.50;;;27.90;98.90;;;;;;5111673;27;20507;-82
2023/06/02 11:30:20;;;;;;;6.00;4.80;;;28.00;98.90;;;;;;5119788;27;20449;-76
2023/06/02 11:32:51;;;;;;;7.37;5.00;;;28.10;98.70;;;;;;5112703;27;20880;-81
2023/06/02 11:35:20;;;;;;;10.33;5.23;;;28.20;98.60;;;;;;5110685;28;20568;-83
2023/06/02 11:38:02;;;;;;;6.40;5.37;;;28.30;98.50;;;;;;5082479;28;20954;-82
2023/06/02 11:40:29;;;;;;;7.70;6.30;;;28.40;97.80;;;;;;5102008;27;20503;-76
2023/06/02 11:42:55;;;;;;;7.00;6.30;;;28.50;97.80;;;;;;5091466;27;21005;-83
2023/06/02 11:45:30;;;;;;;5.80;5.30;;;28.40;97.50;;;;;;5106153;27;20804;-83
2023/06/02 11:48:01;;;;;;;11.20;5.30;;;28.40;97.50;;;;;;5099234;27;20161;-77
2023/06/02 11:50:28;;;;;;;13.70;5.60;;;28.30;99.30;;;;;;5083404;28;20460;-83
2023/06/02 11:52:55;;;;;;;108.37;13.33;;;28.10;98.90;;;;;;5102652;27;20558;-76
2023/06/02 11:55:25;;;;;;;11.47;4.93;;;27.90;98.80;;;;;;5103086;27;20456;-83
2023/06/02 11:57:50;;;;;;;12.07;5.10;;;27.60;97.80;;;;;;5085824;28;20512;-77
2023/06/02 12:00:16;;;;;;;8.53;4.77;;;27.30;97.10;;;;;;5105702;27;21016;-83
2023/06/02 12:02:53;;;;;;;5.70;4.90;;;27.00;97.30;;;;;;5095440;28;20262;-77
2023/06/02 12:05:31;;;;;;;12.00;4.87;;;26.70;96.20;;;;;;5080769;28;20606;-82
2023/06/02 12:08:07;;;;;;;12.93;4.17;;;26.40;96.10;;;;;;5099194;28;20417;-84
2023/06/02 12:10:34;;;;;;;4.73;4.27;;;26.30;95.90;;;;;;5101988;27;20792;-83
2023/06/02 12:13:00;;;;;;;5.87;3.87;;;26.20;95.90;;;;;;5088918;27;21056;-77
2023/06/02 12:15:38;;;;;;;6.70;4.80;;;26.20;95.60;;;;;;5125722;27;20454;-77
2023/06/02 12:18:05;;;;;;;9.90;4.00;;;26.10;95.50;;;;;;5103594;27;20783;-78
2023/06/02 12:20:38;;;;;;;4.87;3.70;;;26.10;95.10;;;;;;5110837;27;20455;-78
2023/06/02 12:23:04;;;;;;;5.10;3.43;;;26.00;95.90;;;;;;5107763;28;20680;-82
2023/06/02 12:25:30;;;;;;;3.93;3.57;;;25.90;96.50;;;;;;5113390;28;20569;-78
2023/06/02 12:28:09;;;;;;;4.97;3.50;;;25.90;96.70;;;;;;5094276;28;20526;-77
2023/06/02 12:30:35;;;;;;;6.00;3.47;;;25.90;97.30;;;;;;5106284;27;20439;-83
2023/06/02 12:33:09;;;;;;;5.40;3.97;;;25.80;97.20;;;;;;5128485;27;21007;-83
2023/06/02 12:35:35;;;;;;;4.20;3.80;;;25.80;98.00;;;;;;5112849;27;20223;-77
2023/06/02 12:38:03;;;;;;;6.80;4.40;;;25.70;98.70;;;;;;5109157;27;20450;-77
2023/06/02 12:40:29;;;;;;;4.77;3.80;;;25.60;98.80;;;;;;5119035;27;20428;-77
2023/06/02 12:42:55;;;;;;;5.90;4.93;;;25.50;98.40;;;;;;5099108;28;20416;-77